createdAt,value
2022-12-26T00:02:01.845Z,2.10
2022-12-26T00:04:52.096Z,1.92
2022-12-26T00:07:20.900Z,1.92
2022-12-26T00:09:50.708Z,1.80
2022-12-26T00:12:20.287Z,3.45
2022-12-26T00:14:52.691Z,3.05
2022-12-26T00:17:22.230Z,2.08
2022-12-26T00:19:51.840Z,2.85
2022-12-26T00:22:21.387Z,3.08
2022-12-26T00:24:51.011Z,2.53
2022-12-26T00:27:20.558Z,2.03
2022-12-26T00:29:53.458Z,3.97
2022-12-26T00:32:23.054Z,4.10
2022-12-26T00:34:52.591Z,2.42
2022-12-26T00:37:22.122Z,2.95
2022-12-26T00:39:51.738Z,3.08
2022-12-26T00:42:21.286Z,5.03
2022-12-26T00:44:53.734Z,2.85
2022-12-26T00:47:23.284Z,3.55
2022-12-26T00:50:13.195Z,4.10
2022-12-26T00:52:42.480Z,2.72
2022-12-26T00:55:12.849Z,4.93
2022-12-26T00:57:42.408Z,2.67
2022-12-26T01:00:16.541Z,2.08
2022-12-26T01:02:46.197Z,3.03
2022-12-26T01:05:15.800Z,2.50
2022-12-26T01:08:19.517Z,5.85
2022-12-26T01:10:35.042Z,2.53
2022-12-26T01:13:05.006Z,2.05
2022-12-26T01:15:37.123Z,2.55
2022-12-26T01:18:08.485Z,1.75
2022-12-26T01:20:38.012Z,3.30
2022-12-26T01:23:07.553Z,1.80
2022-12-26T01:25:37.110Z,3.70
2022-12-26T01:28:26.764Z,3.05
2022-12-26T01:30:58.894Z,2.60
2022-12-26T01:33:28.437Z,2.03
2022-12-26T01:35:57.956Z,6.68
2022-12-26T01:38:27.890Z,2.90
2022-12-26T01:41:09.793Z,3.60
2022-12-26T01:44:04.268Z,4.25
2022-12-26T01:46:41.834Z,4.25
2022-12-26T01:49:16.633Z,4.40
2022-12-26T01:51:50.939Z,5.43
2022-12-26T01:54:39.366Z,3.42
2022-12-26T01:57:18.748Z,5.28
2022-12-26T01:59:50.202Z,3.47
2022-12-26T02:02:23.961Z,4.05
2022-12-26T02:05:07.475Z,3.53
2022-12-26T02:07:37.893Z,2.20
2022-12-26T02:10:10.448Z,4.18
2022-12-26T02:12:41.127Z,3.63
2022-12-26T02:15:15.079Z,3.08
2022-12-26T02:17:47.607Z,3.20
2022-12-26T02:20:22.828Z,4.30
2022-12-26T02:23:41.625Z,2.42
2022-12-26T02:26:39.523Z,2.53
2022-12-26T02:29:39.228Z,1.83
2022-12-26T02:32:16.952Z,1.50
2022-12-26T02:34:56.192Z,3.03
2022-12-26T02:37:39.344Z,2.33
2022-12-26T02:40:26.492Z,2.10
2022-12-26T02:43:00.790Z,2.60
2022-12-26T02:45:49.931Z,1.10
2022-12-26T02:48:30.730Z,1.38
2022-12-26T02:51:26.455Z,0.52
2022-12-26T02:54:21.677Z,0.55
2022-12-26T02:57:08.569Z,0.73
2022-12-26T02:59:59.229Z,0.70
2022-12-26T03:02:45.907Z,3.40
2022-12-26T03:05:36.979Z,0.35
2022-12-26T03:08:22.094Z,0.75
2022-12-26T03:11:07.103Z,0.90
2022-12-26T03:13:39.510Z,0.70
2022-12-26T03:16:25.891Z,0.82
2022-12-26T03:19:00.552Z,0.40
2022-12-26T03:21:38.881Z,0.57
2022-12-26T03:24:13.594Z,0.70
2022-12-26T03:26:47.704Z,0.38
2022-12-26T03:29:32.610Z,0.22
2022-12-26T03:32:03.211Z,0.10
2022-12-26T03:34:32.871Z,0.20
2022-12-26T03:37:47.696Z,0.32
2022-12-26T03:40:44.751Z,0.10
2022-12-26T03:43:38.712Z,0.15
2022-12-26T03:46:31.820Z,0.20
2022-12-26T03:49:24.878Z,0.10
2022-12-26T03:52:14.223Z,0.17
2022-12-26T03:55:06.323Z,0.10
2022-12-26T03:57:56.375Z,0.15
2022-12-26T04:00:39.259Z,1.75
2022-12-26T04:03:26.513Z,0.32
2022-12-26T04:06:11.233Z,0.10
2022-12-26T04:09:00.708Z,0.57
2022-12-26T04:11:52.556Z,0.08
2022-12-26T04:14:48.668Z,0.70
2022-12-26T04:17:41.344Z,0.20
2022-12-26T04:20:16.981Z,0.38
2022-12-26T04:23:05.062Z,0.25
2022-12-26T04:25:51.834Z,0.25
2022-12-26T04:28:37.945Z,0.50
2022-12-26T04:31:24.575Z,0.65
2022-12-26T04:34:11.731Z,3.05
2022-12-26T04:36:59.231Z,2.03
2022-12-26T04:39:46.392Z,2.25
2022-12-26T04:42:29.378Z,1.50
2022-12-26T04:45:02.278Z,1.35
2022-12-26T04:47:33.615Z,1.63
2022-12-26T04:50:15.497Z,1.52
2022-12-26T04:52:57.862Z,1.80
2022-12-26T04:55:28.134Z,1.45
2022-12-26T04:57:57.748Z,1.25
2022-12-26T05:00:31.153Z,1.00
2022-12-26T05:03:18.258Z,1.65
2022-12-26T05:06:09.660Z,1.77
2022-12-26T05:08:54.687Z,1.10
2022-12-26T05:11:24.418Z,0.82
2022-12-26T05:13:54.892Z,1.20
2022-12-26T05:16:41.145Z,2.90
2022-12-26T05:19:25.724Z,1.63
2022-12-26T05:22:08.304Z,3.53
2022-12-26T05:24:54.560Z,1.20
2022-12-26T05:30:06.591Z,1.45
2022-12-26T05:32:51.247Z,2.10
2022-12-26T05:35:21.127Z,1.52
2022-12-26T05:37:50.707Z,1.20
2022-12-26T05:40:20.227Z,1.35
2022-12-26T05:42:49.742Z,1.40
2022-12-26T05:45:19.286Z,0.75
2022-12-26T05:47:52.199Z,1.40
2022-12-26T05:50:21.963Z,0.80
2022-12-26T05:52:51.534Z,3.42
2022-12-26T05:55:21.142Z,1.48
2022-12-26T05:57:50.663Z,1.15
2022-12-26T06:00:20.704Z,0.70
2022-12-26T06:02:54.078Z,1.20
2022-12-26T06:05:23.827Z,0.68
2022-12-26T06:07:53.379Z,1.05
2022-12-26T06:10:23.042Z,0.38
2022-12-26T06:12:52.545Z,0.40
2022-12-26T06:15:22.084Z,0.70
2022-12-26T06:17:54.209Z,1.25
2022-12-26T06:20:23.777Z,1.52
2022-12-26T06:22:53.313Z,1.67
2022-12-26T06:25:23.000Z,4.50
2022-12-26T06:27:52.641Z,1.77
2022-12-26T06:30:22.223Z,2.30
2022-12-26T06:32:54.416Z,1.55
2022-12-26T06:35:23.980Z,1.73
2022-12-26T06:37:54.448Z,1.73
2022-12-26T06:40:23.980Z,2.35
2022-12-26T06:42:53.574Z,1.75
2022-12-26T06:45:23.184Z,1.48
2022-12-26T06:47:55.532Z,1.10
2022-12-26T06:50:25.082Z,1.52
2022-12-26T06:52:54.634Z,0.93
2022-12-26T06:55:24.160Z,0.80
2022-12-26T06:57:55.026Z,0.63
2022-12-26T07:00:25.234Z,1.65
2022-12-26T07:02:57.615Z,1.25
2022-12-26T07:05:27.175Z,1.00
2022-12-26T07:07:56.766Z,1.98
2022-12-26T07:10:26.418Z,0.73
2022-12-26T07:12:56.123Z,0.60
2022-12-26T07:15:25.727Z,0.80
2022-12-26T07:17:58.394Z,6.40
2022-12-26T07:20:27.939Z,4.60
2022-12-26T07:22:57.651Z,3.80
2022-12-26T07:25:27.234Z,5.95
2022-12-26T07:27:57.032Z,1.50
2022-12-26T07:30:26.694Z,0.77
2022-12-26T07:32:58.843Z,0.50
2022-12-26T07:35:28.463Z,0.98
2022-12-26T07:37:58.084Z,0.55
2022-12-26T07:40:29.422Z,0.40
2022-12-26T07:42:59.077Z,1.30
2022-12-26T07:45:28.659Z,1.17
2022-12-26T07:48:02.088Z,2.08
2022-12-26T07:50:31.940Z,1.05
2022-12-26T07:53:02.493Z,1.10
2022-12-26T07:55:32.063Z,1.10
2022-12-26T07:58:02.032Z,1.55
2022-12-26T08:00:31.726Z,1.98
2022-12-26T08:03:07.679Z,1.85
2022-12-26T08:05:37.996Z,2.05
2022-12-26T08:08:07.682Z,2.20
2022-12-26T08:10:37.287Z,3.53
2022-12-26T08:13:06.854Z,2.38
2022-12-26T08:15:36.489Z,3.58
2022-12-26T08:18:08.976Z,2.30
2022-12-26T08:20:39.509Z,1.58
2022-12-26T08:23:09.052Z,1.85
2022-12-26T08:25:38.606Z,2.13
2022-12-26T08:28:08.135Z,3.40
2022-12-26T08:30:38.101Z,2.97
2022-12-26T08:33:10.707Z,2.40
2022-12-26T08:35:41.906Z,3.10
2022-12-26T08:38:11.559Z,3.75
2022-12-26T08:40:43.933Z,3.30
2022-12-26T08:46:05.561Z,3.67
2022-12-26T08:48:39.089Z,3.63
2022-12-26T08:51:11.297Z,3.70
2022-12-26T08:53:41.041Z,2.45
2022-12-26T08:56:16.276Z,2.75
2022-12-26T08:58:46.672Z,2.20
2022-12-26T09:01:18.698Z,2.60
2022-12-26T09:03:51.124Z,2.20
2022-12-26T09:06:20.789Z,2.08
2022-12-26T09:08:50.524Z,2.20
2022-12-26T09:11:22.088Z,2.17
2022-12-26T09:13:52.327Z,1.80
2022-12-26T09:16:23.651Z,2.28
2022-12-26T09:19:01.380Z,1.70
2022-12-26T09:21:32.173Z,1.45
2022-12-26T09:24:03.143Z,1.60
2022-12-26T09:26:33.448Z,1.45
2022-12-26T09:29:03.391Z,1.73
2022-12-26T09:31:34.547Z,1.38
2022-12-26T09:34:08.973Z,1.30
2022-12-26T09:36:40.770Z,1.45
2022-12-26T09:39:11.326Z,1.42
2022-12-26T09:42:04.013Z,1.20
2022-12-26T09:44:46.063Z,1.73
2022-12-26T09:47:29.928Z,2.15
2022-12-26T09:50:06.715Z,1.70
2022-12-26T09:52:43.379Z,2.25
2022-12-26T09:55:32.998Z,1.77
2022-12-26T09:58:07.331Z,1.90
2022-12-26T10:00:45.392Z,4.00
2022-12-26T10:03:15.161Z,2.97
2022-12-26T10:06:00.571Z,1.88
2022-12-26T10:08:39.082Z,1.75
2022-12-26T10:11:14.095Z,1.73
2022-12-26T10:13:50.939Z,1.60
2022-12-26T10:16:27.782Z,1.55
2022-12-26T10:19:04.535Z,1.08
2022-12-26T10:21:52.610Z,0.75
2022-12-26T10:24:26.291Z,3.38
2022-12-26T10:27:02.558Z,2.42
2022-12-26T10:29:37.015Z,1.45
2022-12-26T10:32:10.506Z,1.30
2022-12-26T10:34:44.040Z,1.48
2022-12-26T10:37:25.688Z,1.80
2022-12-26T10:40:00.627Z,1.65
2022-12-26T10:42:33.888Z,1.00
2022-12-26T10:45:04.376Z,0.98
2022-12-26T10:47:40.351Z,1.02
2022-12-26T10:52:49.223Z,1.50
2022-12-26T10:55:28.492Z,1.35
2022-12-26T10:58:04.302Z,3.35
2022-12-26T11:00:34.024Z,1.58
2022-12-26T11:03:09.756Z,1.48
2022-12-26T11:08:43.187Z,0.90
2022-12-26T11:11:16.447Z,0.93
2022-12-26T11:13:52.611Z,1.77
2022-12-26T11:16:28.479Z,0.52
2022-12-26T11:21:30.063Z,0.70
2022-12-26T11:24:22.415Z,0.95
2022-12-26T11:26:51.981Z,3.15
2022-12-26T11:29:24.128Z,1.60
2022-12-26T11:31:56.959Z,1.35
2022-12-26T11:34:34.538Z,2.17
2022-12-26T11:37:05.922Z,1.92
2022-12-26T11:39:40.715Z,2.20
2022-12-26T11:42:15.546Z,1.10
2022-12-26T11:44:49.405Z,1.30
2022-12-26T11:47:21.911Z,1.60
2022-12-26T11:49:57.191Z,2.03
2022-12-26T11:52:37.711Z,3.30
2022-12-26T11:55:29.737Z,3.25
2022-12-26T11:58:01.862Z,4.88
2022-12-26T12:00:32.485Z,1.10
2022-12-26T12:03:02.159Z,2.17
2022-12-26T12:05:45.067Z,2.70
2022-12-26T12:08:40.262Z,1.45
2022-12-26T12:11:27.985Z,2.53
2022-12-26T12:14:11.842Z,1.00
2022-12-26T12:16:52.165Z,1.38
2022-12-26T12:19:30.650Z,3.30
2022-12-26T12:22:14.601Z,0.60
2022-12-26T12:24:59.921Z,0.60
2022-12-26T12:27:36.083Z,1.60
2022-12-26T12:30:21.626Z,1.92
2022-12-26T12:33:09.905Z,0.98
2022-12-26T12:35:51.410Z,1.92
2022-12-26T12:38:32.479Z,2.67
2022-12-26T12:41:30.130Z,0.82
2022-12-26T12:44:07.787Z,1.73
2022-12-26T12:46:52.773Z,0.70
2022-12-26T12:49:40.076Z,0.60
2022-12-26T12:52:20.465Z,0.60
2022-12-26T12:55:30.186Z,1.00
2022-12-26T12:58:07.328Z,1.00
2022-12-26T13:00:45.054Z,1.15
2022-12-26T13:03:25.425Z,1.48
2022-12-26T13:06:02.353Z,1.05
2022-12-26T13:08:38.210Z,0.60
2022-12-26T13:13:48.534Z,1.73
2022-12-26T13:16:27.901Z,1.70
2022-12-26T13:19:01.379Z,0.50
2022-12-26T13:21:33.878Z,0.75
2022-12-26T13:24:21.717Z,1.02
2022-12-26T13:26:58.423Z,1.15
2022-12-26T13:32:22.490Z,5.20
2022-12-26T13:34:53.445Z,2.88
2022-12-26T13:37:59.083Z,2.17
2022-12-26T13:40:32.441Z,1.20
2022-12-26T13:43:18.495Z,1.08
2022-12-26T13:45:55.325Z,1.50
2022-12-26T13:48:56.632Z,1.10
2022-12-26T13:51:46.051Z,1.20
2022-12-26T13:54:17.751Z,1.67
2022-12-26T13:57:18.275Z,1.80
2022-12-26T13:59:58.913Z,5.20
2022-12-26T14:03:17.336Z,2.00
2022-12-26T14:06:02.357Z,4.15
2022-12-26T14:08:43.603Z,1.90
2022-12-26T14:11:30.092Z,1.10
2022-12-26T14:14:11.122Z,1.23
2022-12-26T14:16:49.169Z,1.50
2022-12-26T14:19:32.136Z,1.73
2022-12-26T14:22:14.682Z,1.60
2022-12-26T14:24:57.493Z,1.55
2022-12-26T14:27:37.692Z,1.48
2022-12-26T14:30:33.961Z,1.95
2022-12-26T14:33:24.163Z,2.25
2022-12-26T14:36:04.091Z,2.45
2022-12-26T14:38:46.651Z,2.15
2022-12-26T14:41:31.052Z,2.50
2022-12-26T14:44:13.241Z,3.03
2022-12-26T14:47:02.331Z,2.58
2022-12-26T14:49:45.574Z,1.17
2022-12-26T14:52:45.153Z,0.93
2022-12-26T14:55:44.616Z,0.68
2022-12-26T14:58:31.514Z,1.55
2022-12-26T15:01:37.086Z,1.88
2022-12-26T15:04:14.151Z,5.05
2022-12-26T15:07:01.656Z,1.60
2022-12-26T15:10:02.626Z,1.83
2022-12-26T15:13:22.780Z,2.05
2022-12-26T15:16:22.336Z,2.58
2022-12-26T15:19:11.239Z,1.88
2022-12-26T15:22:11.153Z,1.65
2022-12-26T15:25:20.315Z,2.08
2022-12-26T15:28:30.029Z,1.83
2022-12-26T15:31:24.136Z,1.48
2022-12-26T15:34:00.835Z,2.30
2022-12-26T15:36:39.228Z,1.25
2022-12-26T15:39:24.104Z,2.63
2022-12-26T15:42:04.126Z,1.08
2022-12-26T15:44:46.035Z,2.53
2022-12-26T15:47:32.227Z,5.30
2022-12-26T15:50:13.309Z,4.95
2022-12-26T15:52:51.747Z,3.17
2022-12-26T15:55:39.125Z,3.95
2022-12-26T15:58:19.880Z,2.35
2022-12-26T16:00:53.069Z,3.03
2022-12-26T16:03:35.708Z,5.82
2022-12-26T16:06:35.331Z,2.55
2022-12-26T16:09:30.021Z,2.95
2022-12-26T16:12:02.263Z,2.95
2022-12-26T16:14:34.675Z,2.80
2022-12-26T16:17:22.237Z,1.63
2022-12-26T16:19:55.448Z,1.00
2022-12-26T16:22:45.401Z,2.63
2022-12-26T16:25:17.771Z,1.60
2022-12-26T16:27:48.549Z,3.75
2022-12-26T16:30:21.511Z,3.35
2022-12-26T16:32:51.450Z,4.03
2022-12-26T16:35:27.995Z,2.65
2022-12-26T16:38:00.709Z,3.60
2022-12-26T16:40:32.724Z,2.25
2022-12-26T16:43:05.138Z,3.47
2022-12-26T16:45:37.445Z,1.73
2022-12-26T16:48:09.171Z,4.18
2022-12-26T16:50:48.845Z,3.92
2022-12-26T16:53:20.469Z,4.90
2022-12-26T16:55:52.430Z,3.53
2022-12-26T16:58:25.871Z,6.72
2022-12-26T17:01:10.757Z,3.78
2022-12-26T17:03:46.731Z,4.85
2022-12-26T17:06:25.922Z,5.47
2022-12-26T17:08:56.147Z,3.88
2022-12-26T17:11:32.215Z,4.35
2022-12-26T17:14:03.363Z,4.88
2022-12-26T17:16:34.537Z,7.18
2022-12-26T17:19:13.673Z,5.30
2022-12-26T17:22:05.773Z,3.97
2022-12-26T17:24:40.288Z,3.63
2022-12-26T17:27:17.752Z,5.53
2022-12-26T17:29:59.386Z,2.25
2022-12-26T17:32:39.769Z,11.18
2022-12-26T17:35:15.733Z,4.47
2022-12-26T17:37:45.740Z,3.83
2022-12-26T17:40:28.929Z,10.25
2022-12-26T17:43:09.648Z,3.55
2022-12-26T17:45:46.818Z,4.32
2022-12-26T17:48:17.170Z,4.40
2022-12-26T17:50:49.616Z,4.32
2022-12-26T17:53:30.408Z,3.92
2022-12-26T17:56:06.027Z,4.53
2022-12-26T17:58:36.259Z,3.45
2022-12-26T18:01:06.343Z,6.40
2022-12-26T18:03:36.151Z,2.05
2022-12-26T18:06:06.636Z,7.40
2022-12-26T18:08:38.140Z,4.13
2022-12-26T18:11:13.076Z,4.05
2022-12-26T18:13:43.231Z,4.60
2022-12-26T18:16:17.380Z,4.95
2022-12-26T18:18:49.157Z,7.47
2022-12-26T18:21:19.525Z,6.57
2022-12-26T18:23:49.238Z,3.03
2022-12-26T18:26:26.052Z,3.75
2022-12-26T18:28:57.176Z,3.67
2022-12-26T18:31:28.055Z,8.63
2022-12-26T18:33:58.492Z,8.65
2022-12-26T18:36:34.050Z,4.53
2022-12-26T18:39:04.207Z,11.52
2022-12-26T18:41:36.474Z,6.20
2022-12-26T18:44:06.159Z,5.25
2022-12-26T18:46:37.958Z,6.70
2022-12-26T18:49:07.687Z,16.00
2022-12-26T18:51:39.560Z,5.82
2022-12-26T18:54:09.166Z,5.60
2022-12-26T18:56:41.376Z,2.92
2022-12-26T18:59:13.708Z,5.20
2022-12-26T19:01:43.506Z,4.53
2022-12-26T19:04:16.146Z,5.65
2022-12-26T19:06:46.107Z,4.07
2022-12-26T19:09:17.291Z,7.97
2022-12-26T19:11:49.538Z,8.85
2022-12-26T19:14:21.769Z,7.68
2022-12-26T19:16:51.652Z,5.93
2022-12-26T19:19:21.312Z,7.35
2022-12-26T19:21:51.009Z,9.27
2022-12-26T19:24:20.632Z,5.05
2022-12-26T19:26:53.021Z,6.05
2022-12-26T19:29:22.738Z,6.68
2022-12-26T19:31:52.426Z,6.95
2022-12-26T19:34:23.320Z,7.70
2022-12-26T19:36:55.813Z,13.27
2022-12-26T19:39:25.441Z,12.95
2022-12-26T19:41:57.698Z,5.30
2022-12-26T19:44:30.079Z,7.90
2022-12-26T19:47:12.759Z,6.65
2022-12-26T19:49:42.770Z,8.32
2022-12-26T19:52:12.970Z,6.28
2022-12-26T19:54:42.649Z,8.82
2022-12-26T19:57:14.917Z,8.00
2022-12-26T19:59:44.528Z,7.30
2022-12-26T20:02:15.742Z,10.27
2022-12-26T20:04:45.438Z,7.68
2022-12-26T20:07:15.322Z,11.27
2022-12-26T20:09:45.058Z,8.05
2022-12-26T20:12:17.382Z,5.70
2022-12-26T20:14:47.038Z,12.75
2022-12-26T20:17:16.856Z,7.45
2022-12-26T20:19:47.627Z,9.95
2022-12-26T20:22:17.283Z,7.47
2022-12-26T20:24:47.331Z,9.60
2022-12-26T20:27:19.778Z,7.60
2022-12-26T20:29:49.477Z,8.00
2022-12-26T20:32:19.298Z,4.85
2022-12-26T20:34:48.954Z,7.15
2022-12-26T20:37:18.929Z,9.35
2022-12-26T20:39:48.598Z,7.15
2022-12-26T20:42:20.950Z,10.50
2022-12-26T20:44:50.691Z,10.02
2022-12-26T20:47:20.347Z,10.73
2022-12-26T20:49:50.030Z,12.75
2022-12-26T20:52:19.684Z,9.45
2022-12-26T20:54:49.334Z,7.68
2022-12-26T20:57:22.004Z,9.07
2022-12-26T20:59:51.789Z,5.40
2022-12-26T21:02:21.653Z,9.85
2022-12-26T21:04:51.573Z,7.13
2022-12-26T21:07:21.276Z,10.63
2022-12-26T21:09:50.965Z,7.13
2022-12-26T21:12:23.427Z,5.28
2022-12-26T21:14:53.132Z,8.75
2022-12-26T21:17:22.817Z,8.57
2022-12-26T21:19:52.458Z,15.40
2022-12-26T21:22:23.639Z,9.82
2022-12-26T21:24:53.287Z,11.02
2022-12-26T21:27:25.606Z,5.72
2022-12-26T21:29:55.316Z,8.50
2022-12-26T21:32:24.970Z,6.35
2022-12-26T21:34:54.641Z,9.93
2022-12-26T21:37:36.875Z,10.38
2022-12-26T21:40:07.687Z,10.98
2022-12-26T21:42:39.998Z,8.15
2022-12-26T21:45:11.195Z,9.02
2022-12-26T21:47:40.967Z,10.43
2022-12-26T21:50:11.572Z,6.57
2022-12-26T21:52:41.205Z,9.80
2022-12-26T21:55:25.155Z,10.90
2022-12-26T21:57:58.556Z,12.23
2022-12-26T22:00:28.690Z,7.53
2022-12-26T22:03:10.955Z,6.13
2022-12-26T22:05:42.036Z,11.13
2022-12-26T22:08:13.123Z,7.25
2022-12-26T22:10:59.211Z,4.65
2022-12-26T22:13:32.329Z,3.80
2022-12-26T22:16:07.944Z,2.55
2022-12-26T22:21:11.087Z,5.72
2022-12-26T22:23:41.603Z,6.22
2022-12-26T22:26:13.472Z,4.25
2022-12-26T22:28:46.338Z,4.05
2022-12-26T22:31:21.545Z,4.25
2022-12-26T22:33:56.273Z,4.65
2022-12-26T22:36:25.955Z,3.90
2022-12-26T22:38:55.917Z,6.47
2022-12-26T22:41:25.613Z,7.10
2022-12-26T22:43:58.289Z,8.07
2022-12-26T22:46:28.326Z,5.40
2022-12-26T22:48:58.092Z,5.90
2022-12-26T22:51:28.943Z,5.72
2022-12-26T22:53:59.868Z,3.38
2022-12-26T22:56:30.365Z,5.88
2022-12-26T22:59:03.162Z,5.78
2022-12-26T23:01:33.648Z,4.03
2022-12-26T23:04:04.102Z,7.30
2022-12-26T23:06:37.196Z,7.88
2022-12-26T23:09:09.188Z,6.38
2022-12-26T23:11:39.482Z,7.38
2022-12-26T23:14:15.534Z,11.20
2022-12-26T23:16:49.486Z,8.05
2022-12-26T23:19:41.747Z,3.22
2022-12-26T23:22:12.060Z,4.30
2022-12-26T23:24:41.743Z,4.85
2022-12-26T23:27:24.431Z,7.05
2022-12-26T23:30:09.954Z,8.32
2022-12-26T23:32:40.271Z,3.58
2022-12-26T23:35:12.564Z,6.35
2022-12-26T23:37:43.183Z,3.42
2022-12-26T23:40:16.223Z,3.97
2022-12-26T23:42:46.120Z,6.97
2022-12-26T23:45:18.605Z,4.97
2022-12-26T23:47:49.527Z,6.97
2022-12-26T23:50:19.622Z,5.05
2022-12-26T23:52:49.653Z,5.75
2022-12-26T23:55:19.464Z,3.70
2022-12-26T23:57:49.362Z,7.88
